Time;durP1;ratioP1;P1;durP2;ratioP2;P2;SDS_P1;SDS_P2;PMS_P1;PMS_P2;Temp;Humidity;BMP_temperature;BMP_pressure;BME280_temperature;BME280_humidity;BME280_pressure;Samples;Min_cycle;Max_cycle;Signal;HPM_P1;HPM_P2
2022/05/15 00:02:32;;;;;;;;;;;13.40;99.90;;;;;;5008140;28;19916;-69
2022/05/15 00:04:57;;;;;;;;;;;13.00;99.90;;;;;;5005077;28;19913;-69
2022/05/15 00:07:23;;;;;;;;;;;12.90;99.90;;;;;;4987916;28;19913;-69
2022/05/15 00:09:48;;;;;;;;;;;12.70;99.90;;;;;;5008342;28;20027;-68
2022/05/15 00:12:16;;;;;;;;;;;12.80;99.90;;;;;;4983427;28;19986;-70
2022/05/15 00:14:42;;;;;;;;;;;12.80;99.90;;;;;;5002090;28;19940;-69
2022/05/15 00:17:08;;;;;;;;;;;12.80;99.90;;;;;;5005292;28;20318;-68
2022/05/15 00:19:33;;;;;;;;;;;12.80;99.90;;;;;;5001547;28;19910;-71
2022/05/15 00:21:59;;;;;;;;;;;12.80;99.90;;;;;;5007858;28;19909;-70
2022/05/15 00:24:25;;;;;;;;;;;12.70;99.90;;;;;;5006211;28;19996;-68
2022/05/15 00:26:51;;;;;;;;;;;12.70;99.90;;;;;;5007771;28;19921;-69
2022/05/15 00:29:16;;;;;;;;;;;12.60;99.90;;;;;;5006773;28;19909;-69
2022/05/15 00:31:42;;;;;;;;;;;12.60;99.90;;;;;;5010227;28;19917;-69
2022/05/15 00:34:07;;;;;;;;;;;12.60;99.90;;;;;;5008313;28;19917;-69
2022/05/15 00:36:34;;;;;;;;;;;12.50;99.90;;;;;;5009706;28;20287;-69
2022/05/15 00:38:59;;;;;;;;;;;12.30;99.90;;;;;;5007336;28;20295;-68
2022/05/15 00:41:25;;;;;;;;;;;12.40;99.90;;;;;;5006021;28;19920;-69
2022/05/15 00:43:52;;;;;;;;;;;12.40;99.90;;;;;;5006833;28;20022;-69
2022/05/15 00:46:21;;;;;;;;;;;12.50;99.90;;;;;;5008825;28;20350;-70
2022/05/15 00:48:47;;;;;;;;;;;12.40;99.90;;;;;;5007967;28;20382;-69
2022/05/15 00:51:39;;;;;;;;;;;12.50;99.90;;;;;;4993219;28;19964;-69
2022/05/15 00:54:34;;;;;;;;;;;12.50;99.90;;;;;;4976629;28;19917;-69
2022/05/15 00:57:09;;;;;;;;;;;12.50;99.90;;;;;;4990685;28;19932;-70
2022/05/15 00:59:40;;;;;;;;;;;12.40;99.90;;;;;;5000540;28;19910;-69
2022/05/15 01:02:08;;;;;;;;;;;12.30;99.90;;;;;;5008827;28;20275;-69
2022/05/15 01:04:33;;;;;;;;;;;12.30;99.90;;;;;;5005223;28;19913;-68
2022/05/15 01:07:00;;;;;;;;;;;12.30;99.90;;;;;;5011975;28;20244;-69
2022/05/15 01:09:27;;;;;;;;;;;12.40;99.90;;;;;;5011615;28;19960;-68
2022/05/15 01:11:52;;;;;;;;;;;12.40;99.90;;;;;;5011492;28;19918;-69
2022/05/15 01:14:18;;;;;;;;;;;12.40;99.90;;;;;;5008434;28;19988;-69
2022/05/15 01:16:44;;;;;;;;;;;12.40;99.90;;;;;;5011198;28;19972;-68
2022/05/15 01:19:10;;;;;;;;;;;12.40;99.90;;;;;;5011379;28;19913;-69
2022/05/15 01:21:37;;;;;;;;;;;12.20;99.90;;;;;;5012235;28;20017;-70
2022/05/15 01:24:04;;;;;;;;;;;11.80;99.90;;;;;;4994755;28;19971;-70
2022/05/15 01:26:30;;;;;;;;;;;11.60;99.90;;;;;;5009559;28;19956;-71
2022/05/15 01:28:56;;;;;;;;;;;11.40;99.90;;;;;;5011711;28;20318;-69
2022/05/15 01:31:21;;;;;;;;;;;11.20;99.90;;;;;;5000371;28;19918;-70
2022/05/15 01:33:48;;;;;;;;;;;11.10;99.90;;;;;;5008746;28;19963;-71
2022/05/15 01:36:14;;;;;;;;;;;11.00;99.90;;;;;;5010546;28;19909;-71
2022/05/15 01:38:40;;;;;;;;;;;11.10;99.90;;;;;;5011890;28;19959;-71
2022/05/15 01:41:07;;;;;;;;;;;11.10;99.90;;;;;;5012418;28;19949;-71
2022/05/15 01:43:33;;;;;;;;;;;11.20;99.90;;;;;;5009930;28;20004;-71
2022/05/15 01:45:58;;;;;;;;;;;11.20;99.90;;;;;;5008244;28;20081;-71
2022/05/15 01:48:25;;;;;;;;;;;11.20;99.90;;;;;;5010981;28;19920;-70
2022/05/15 01:50:51;;;;;;;;;;;11.20;99.90;;;;;;5011135;28;19923;-70
2022/05/15 01:53:16;;;;;;;;;;;11.20;99.90;;;;;;5006950;28;19909;-71
2022/05/15 01:55:42;;;;;;;;;;;11.40;99.90;;;;;;5003707;28;19913;-70
2022/05/15 01:58:10;;;;;;;;;;;11.30;99.90;;;;;;5006080;28;19909;-70
2022/05/15 02:00:35;;;;;;;;;;;11.50;99.90;;;;;;5008603;28;19913;-71
2022/05/15 02:03:01;;;;;;;;;;;11.60;99.90;;;;;;5010081;28;19909;-71
2022/05/15 02:05:26;;;;;;;;;;;11.70;99.90;;;;;;5010607;28;19909;-71
2022/05/15 02:07:53;;;;;;;;;;;11.80;99.90;;;;;;5009871;28;19917;-71
2022/05/15 02:10:19;;;;;;;;;;;11.90;99.90;;;;;;5010495;28;20299;-71
2022/05/15 02:12:44;;;;;;;;;;;11.90;99.90;;;;;;5000271;28;20208;-71
2022/05/15 02:15:10;;;;;;;;;;;12.10;99.90;;;;;;4994176;28;19920;-72
2022/05/15 02:17:36;;;;;;;;;;;12.20;99.90;;;;;;5011885;28;19910;-71
2022/05/15 02:20:02;;;;;;;;;;;12.30;99.90;;;;;;5002940;28;19948;-70
2022/05/15 02:22:29;;;;;;;;;;;12.20;99.90;;;;;;5005031;28;19968;-69
2022/05/15 02:24:54;;;;;;;;;;;12.00;99.90;;;;;;5007860;28;20319;-71
2022/05/15 02:27:20;;;;;;;;;;;11.70;99.90;;;;;;5005710;28;19935;-70
2022/05/15 02:29:45;;;;;;;;;;;11.70;99.90;;;;;;5003813;28;19925;-71
2022/05/15 02:32:11;;;;;;;;;;;11.60;99.90;;;;;;5007610;28;20278;-71
2022/05/15 02:34:36;;;;;;;;;;;11.60;99.90;;;;;;5008095;28;20410;-70
2022/05/15 02:37:02;;;;;;;;;;;11.60;99.90;;;;;;5006858;28;19933;-71
2022/05/15 02:39:28;;;;;;;;;;;11.60;99.90;;;;;;5005953;28;19913;-70
2022/05/15 02:41:53;;;;;;;;;;;11.70;99.90;;;;;;5010170;28;20004;-71
2022/05/15 02:44:19;;;;;;;;;;;11.70;99.90;;;;;;5009094;28;20012;-71
2022/05/15 02:46:44;;;;;;;;;;;11.60;99.90;;;;;;5008659;28;19931;-71
2022/05/15 02:51:54;;;;;;;;;;;11.60;99.90;;;;;;5012334;28;19919;-70
2022/05/15 02:54:19;;;;;;;;;;;11.60;99.90;;;;;;5008311;28;19913;-71
2022/05/15 02:56:45;;;;;;;;;;;11.60;99.90;;;;;;5009151;28;19909;-71
2022/05/15 02:59:11;;;;;;;;;;;11.60;99.90;;;;;;4998788;28;20203;-70
2022/05/15 03:01:36;;;;;;;;;;;11.50;99.90;;;;;;4986914;28;20410;-71
2022/05/15 03:04:02;;;;;;;;;;;11.40;99.90;;;;;;5007308;28;19917;-71
2022/05/15 03:06:28;;;;;;;;;;;11.40;99.90;;;;;;5009458;28;19916;-70
2022/05/15 03:08:53;;;;;;;;;;;11.30;99.90;;;;;;4988173;28;20226;-70
2022/05/15 03:11:19;;;;;;;;;;;11.30;99.90;;;;;;5006797;28;20367;-70
2022/05/15 03:13:45;;;;;;;;;;;11.40;99.90;;;;;;5006696;28;20433;-70
2022/05/15 03:16:12;;;;;;;;;;;11.50;99.90;;;;;;5009308;28;20142;-70
2022/05/15 03:18:39;;;;;;;;;;;11.60;99.90;;;;;;5007214;28;20048;-71
2022/05/15 03:21:04;;;;;;;;;;;11.70;99.90;;;;;;5006117;28;19925;-71
2022/05/15 03:23:31;;;;;;;;;;;11.70;99.90;;;;;;5009416;28;20287;-71
2022/05/15 03:25:56;;;;;;;;;;;11.70;99.90;;;;;;5005848;28;19917;-72
2022/05/15 03:28:22;;;;;;;;;;;11.60;99.90;;;;;;5004474;28;19909;-70
2022/05/15 03:30:47;;;;;;;;;;;11.60;99.90;;;;;;5008181;28;19928;-71
2022/05/15 03:33:13;;;;;;;;;;;11.60;99.90;;;;;;5008858;28;19910;-72
2022/05/15 03:35:39;;;;;;;;;;;11.50;99.90;;;;;;5009828;28;20282;-71
2022/05/15 03:38:06;;;;;;;;;;;11.50;99.90;;;;;;5006454;28;19913;-71
2022/05/15 03:40:31;;;;;;;;;;;11.40;99.90;;;;;;5007438;28;20443;-71
2022/05/15 03:42:57;;;;;;;;;;;11.30;99.90;;;;;;4990477;28;20012;-70
2022/05/15 03:45:22;;;;;;;;;;;11.40;99.90;;;;;;4999427;28;19910;-70
2022/05/15 03:47:51;;;;;;;;;;;11.50;99.90;;;;;;5009719;28;20383;-70
2022/05/15 03:50:18;;;;;;;;;;;11.40;99.90;;;;;;5007384;28;19917;-70
2022/05/15 03:52:44;;;;;;;;;;;11.40;99.90;;;;;;5008923;28;19996;-71
2022/05/15 03:55:10;;;;;;;;;;;11.30;99.90;;;;;;5007404;28;20442;-70
2022/05/15 03:57:36;;;;;;;;;;;11.20;99.90;;;;;;5009173;28;19944;-72
2022/05/15 04:00:02;;;;;;;;;;;11.20;99.90;;;;;;5002552;28;19960;-70
2022/05/15 04:02:28;;;;;;;;;;;11.30;99.90;;;;;;5009572;28;19916;-71
2022/05/15 04:04:53;;;;;;;;;;;11.20;99.90;;;;;;5009279;28;19910;-69
2022/05/15 04:07:19;;;;;;;;;;;11.40;99.90;;;;;;5012806;28;19917;-71
2022/05/15 04:09:44;;;;;;;;;;;11.50;99.90;;;;;;5006280;28;19909;-70
2022/05/15 04:12:11;;;;;;;;;;;11.40;99.90;;;;;;5009291;28;20398;-72
2022/05/15 04:14:38;;;;;;;;;;;11.40;99.90;;;;;;5003598;28;19960;-71
2022/05/15 04:17:04;;;;;;;;;;;11.40;99.90;;;;;;5002672;28;19906;-70
2022/05/15 04:19:30;;;;;;;;;;;11.50;99.90;;;;;;5000540;28;19910;-70
2022/05/15 04:21:58;;;;;;;;;;;11.40;99.90;;;;;;5009970;28;19964;-71
2022/05/15 04:24:24;;;;;;;;;;;11.40;99.90;;;;;;4989573;28;19988;-70
2022/05/15 04:26:49;;;;;;;;;;;11.30;99.90;;;;;;5010731;28;20024;-70
2022/05/15 04:29:15;;;;;;;;;;;11.30;99.90;;;;;;4982451;28;19910;-69
2022/05/15 04:31:41;;;;;;;;;;;11.40;99.90;;;;;;4998446;28;20043;-70
2022/05/15 04:34:07;;;;;;;;;;;11.30;99.90;;;;;;5007490;28;19987;-70
2022/05/15 04:36:33;;;;;;;;;;;11.30;99.90;;;;;;5011595;28;19921;-71
2022/05/15 04:39:01;;;;;;;;;;;11.30;99.90;;;;;;5016690;28;19909;-71
2022/05/15 04:41:27;;;;;;;;;;;11.40;99.90;;;;;;5014010;28;19953;-70
2022/05/15 04:43:53;;;;;;;;;;;11.40;99.90;;;;;;5012083;28;20347;-70
2022/05/15 04:46:18;;;;;;;;;;;11.60;99.90;;;;;;5015081;28;19909;-71
2022/05/15 04:48:44;;;;;;;;;;;11.70;99.90;;;;;;5013883;28;19925;-70
2022/05/15 04:51:10;;;;;;;;;;;11.60;99.90;;;;;;5012754;28;19928;-70
2022/05/15 04:53:35;;;;;;;;;;;11.70;99.90;;;;;;5007653;28;20055;-70
2022/05/15 04:56:01;;;;;;;;;;;11.60;99.90;;;;;;5013307;28;19936;-70
2022/05/15 04:58:27;;;;;;;;;;;11.70;99.90;;;;;;5012143;28;19913;-70
2022/05/15 05:00:53;;;;;;;;;;;11.60;99.90;;;;;;5009586;28;19909;-70
2022/05/15 05:03:18;;;;;;;;;;;11.70;99.90;;;;;;5013885;28;19939;-69
2022/05/15 05:05:44;;;;;;;;;;;11.70;99.90;;;;;;5002898;28;19917;-71
2022/05/15 05:08:11;;;;;;;;;;;11.70;99.90;;;;;;4999248;28;19913;-71
2022/05/15 05:10:36;;;;;;;;;;;11.80;99.90;;;;;;4991735;28;20031;-70
2022/05/15 05:13:02;;;;;;;;;;;11.80;99.90;;;;;;5012051;28;19910;-70
2022/05/15 05:15:28;;;;;;;;;;;11.90;99.90;;;;;;5011687;28;21045;-70
2022/05/15 05:17:54;;;;;;;;;;;11.90;99.90;;;;;;5008429;28;20030;-70
2022/05/15 05:20:19;;;;;;;;;;;11.90;99.90;;;;;;5010223;28;20003;-71
2022/05/15 05:22:45;;;;;;;;;;;12.00;99.90;;;;;;5019172;28;19909;-70
2022/05/15 05:25:11;;;;;;;;;;;12.10;99.90;;;;;;5020082;28;20011;-70
2022/05/15 05:27:37;;;;;;;;;;;12.10;99.90;;;;;;5011913;28;19960;-70
2022/05/15 05:30:04;;;;;;;;;;;12.30;99.90;;;;;;5008036;28;19917;-70
2022/05/15 05:32:30;;;;;;;;;;;12.30;99.90;;;;;;5013452;28;20288;-70
2022/05/15 05:34:56;;;;;;;;;;;12.40;99.90;;;;;;4994807;28;19909;-70
2022/05/15 05:37:21;;;;;;;;;;;12.50;99.90;;;;;;5014370;28;19909;-70
2022/05/15 05:39:47;;;;;;;;;;;12.50;99.90;;;;;;5002682;28;19913;-69
2022/05/15 05:42:13;;;;;;;;;;;12.60;99.90;;;;;;5007789;28;20004;-71
2022/05/15 05:44:39;;;;;;;;;;;12.70;99.90;;;;;;5008225;28;20252;-72
2022/05/15 05:47:05;;;;;;;;;;;12.80;99.90;;;;;;5007042;28;19916;-70
2022/05/15 05:49:30;;;;;;;;;;;12.80;99.90;;;;;;4982517;28;19914;-70
2022/05/15 05:51:56;;;;;;;;;;;12.80;99.90;;;;;;4988199;28;19917;-71
2022/05/15 05:54:21;;;;;;;;;;;12.90;99.90;;;;;;4995902;28;19913;-71
2022/05/15 05:56:47;;;;;;;;;;;13.00;99.90;;;;;;5009016;28;19920;-71
2022/05/15 05:59:13;;;;;;;;;;;13.10;99.90;;;;;;5010733;28;19913;-71
2022/05/15 06:01:38;;;;;;;;;;;13.10;99.90;;;;;;5009995;28;19988;-71
2022/05/15 06:06:48;;;;;;;;;;;13.30;99.90;;;;;;5012258;28;19936;-71
2022/05/15 06:09:13;;;;;;;;;;;13.40;99.90;;;;;;5005601;28;19905;-71
2022/05/15 06:11:39;;;;;;;;;;;13.30;99.90;;;;;;4986872;28;19933;-70
2022/05/15 06:14:05;;;;;;;;;;;13.30;99.90;;;;;;5008771;28;19939;-69
2022/05/15 06:16:33;;;;;;;;;;;13.30;99.90;;;;;;5012203;28;19905;-71
2022/05/15 06:18:59;;;;;;;;;;;13.40;99.90;;;;;;5006013;28;19910;-71
2022/05/15 06:21:24;;;;;;;;;;;13.40;99.90;;;;;;5004563;28;20385;-69
2022/05/15 06:23:50;;;;;;;;;;;13.40;99.90;;;;;;5009162;28;19913;-70
2022/05/15 06:26:16;;;;;;;;;;;13.40;99.90;;;;;;5008483;28;20248;-70
2022/05/15 06:28:41;;;;;;;;;;;13.40;99.90;;;;;;5008967;28;20331;-71
2022/05/15 06:31:07;;;;;;;;;;;13.40;99.90;;;;;;5010704;28;19918;-71
2022/05/15 06:33:32;;;;;;;;;;;13.40;99.90;;;;;;4986944;28;20458;-70
2022/05/15 06:35:59;;;;;;;;;;;13.50;99.90;;;;;;5008146;28;19926;-69
2022/05/15 06:38:24;;;;;;;;;;;13.60;99.90;;;;;;5011583;28;19909;-70
2022/05/15 06:40:50;;;;;;;;;;;13.70;99.90;;;;;;5006524;28;19913;-71
2022/05/15 06:43:15;;;;;;;;;;;13.70;99.90;;;;;;5009501;28;19910;-69
2022/05/15 06:45:41;;;;;;;;;;;13.80;99.90;;;;;;5002040;28;20275;-71
2022/05/15 06:48:07;;;;;;;;;;;13.90;99.90;;;;;;5004838;28;20220;-70
2022/05/15 06:50:32;;;;;;;;;;;14.00;99.90;;;;;;5007770;28;19917;-70
2022/05/15 06:52:58;;;;;;;;;;;14.10;99.90;;;;;;5007453;28;20256;-71
2022/05/15 06:55:24;;;;;;;;;;;14.30;99.90;;;;;;5010365;28;20338;-70
2022/05/15 06:57:50;;;;;;;;;;;14.30;99.90;;;;;;4994200;28;20008;-70
2022/05/15 07:00:20;;;;;;;;;;;14.40;99.90;;;;;;5006264;28;19999;-67
2022/05/15 07:02:46;;;;;;;;;;;14.50;99.90;;;;;;5005876;28;19910;-69
2022/05/15 07:05:13;;;;;;;;;;;14.40;99.90;;;;;;5010072;28;19964;-69
2022/05/15 07:07:40;;;;;;;;;;;14.50;99.90;;;;;;4985435;28;20021;-69
2022/05/15 07:10:06;;;;;;;;;;;14.50;99.90;;;;;;5005565;28;19917;-68
2022/05/15 07:12:32;;;;;;;;;;;14.50;99.90;;;;;;5007920;28;20077;-67
2022/05/15 07:14:57;;;;;;;;;;;14.60;99.90;;;;;;5000182;28;19996;-68
2022/05/15 07:17:23;;;;;;;;;;;14.70;99.90;;;;;;5004151;28;19913;-68
2022/05/15 07:19:49;;;;;;;;;;;14.80;99.90;;;;;;5005205;28;20278;-68
2022/05/15 07:22:17;;;;;;;;;;;14.80;99.90;;;;;;5006292;28;20363;-68
2022/05/15 07:24:43;;;;;;;;;;;14.80;99.90;;;;;;5004705;28;19909;-68
2022/05/15 07:27:09;;;;;;;;;;;15.00;99.90;;;;;;5011226;28;19968;-68
2022/05/15 07:29:36;;;;;;;;;;;15.00;99.90;;;;;;5007675;28;19924;-69
2022/05/15 07:32:05;;;;;;;;;;;15.10;99.90;;;;;;5005510;28;19960;-69
2022/05/15 07:34:32;;;;;;;;;;;15.10;99.90;;;;;;4988086;28;19909;-67
2022/05/15 07:36:57;;;;;;;;;;;15.20;99.90;;;;;;5000842;28;19913;-67
2022/05/15 07:39:23;;;;;;;;;;;15.40;99.90;;;;;;5000782;28;20643;-67
2022/05/15 07:41:48;;;;;;;;;;;15.30;99.90;;;;;;5009124;28;19909;-67
2022/05/15 07:44:14;;;;;;;;;;;15.50;99.90;;;;;;5008279;28;20335;-68
2022/05/15 07:46:40;;;;;;;;;;;15.50;99.90;;;;;;4997338;28;19914;-68
2022/05/15 07:49:06;;;;;;;;;;;15.60;99.90;;;;;;5005962;28;20382;-68
2022/05/15 07:51:32;;;;;;;;;;;15.70;99.90;;;;;;4984734;28;20006;-67
2022/05/15 07:53:58;;;;;;;;;;;15.60;99.90;;;;;;5001088;28;19924;-70
2022/05/15 07:56:24;;;;;;;;;;;15.80;99.90;;;;;;4987565;28;19909;-68
2022/05/15 07:58:49;;;;;;;;;;;15.90;99.90;;;;;;5012737;28;19959;-70
2022/05/15 08:01:15;;;;;;;;;;;16.00;99.90;;;;;;4996025;28;19924;-69
2022/05/15 08:03:44;;;;;;;;;;;16.00;99.90;;;;;;5000508;28;19967;-70
2022/05/15 08:08:59;;;;;;;;;;;16.00;99.90;;;;;;5004494;28;19917;-69
2022/05/15 08:11:28;;;;;;;;;;;16.20;99.90;;;;;;5008029;28;20348;-70
2022/05/15 08:13:54;;;;;;;;;;;16.20;99.90;;;;;;5006223;28;19917;-69
2022/05/15 08:16:19;;;;;;;;;;;16.20;99.90;;;;;;5008866;28;19993;-70
2022/05/15 08:24:14;;;;;;;;;;;16.60;99.90;;;;;;5015324;28;20374;-70
2022/05/15 08:26:40;;;;;;;;;;;16.60;99.90;;;;;;5013178;28;19909;-69
2022/05/15 08:29:06;;;;;;;;;;;16.80;99.90;;;;;;4993871;28;20323;-69
2022/05/15 08:31:31;;;;;;;;;;;16.90;99.90;;;;;;5011674;28;19917;-70
2022/05/15 08:33:57;;;;;;;;;;;17.00;99.90;;;;;;4996765;28;20344;-70
2022/05/15 08:36:23;;;;;;;;;;;17.10;99.90;;;;;;5010995;28;19913;-71
2022/05/15 08:38:49;;;;;;;;;;;17.10;99.90;;;;;;5014411;28;19909;-68
2022/05/15 08:41:27;;;;;;;;;;;17.20;99.90;;;;;;4994478;28;19909;-68
2022/05/15 08:44:11;;;;;;;;;;;17.10;99.90;;;;;;5013676;28;20004;-69
2022/05/15 08:46:41;;;;;;;;;;;17.00;99.90;;;;;;5007915;28;19944;-70
2022/05/15 08:49:11;;;;;;;;;;;17.10;99.90;;;;;;5012691;28;19909;-69
2022/05/15 08:51:38;;;;;;;;;;;17.00;99.90;;;;;;5005334;28;19983;-69
2022/05/15 08:54:06;;;;;;;;;;;17.00;99.90;;;;;;5012969;28;19910;-69
2022/05/15 08:56:35;;;;;;;;;;;17.00;99.90;;;;;;4996995;28;20312;-69
2022/05/15 08:59:02;;;;;;;;;;;17.10;99.90;;;;;;5009987;28;19914;-70
2022/05/15 09:01:28;;;;;;;;;;;17.30;99.90;;;;;;4995634;28;19920;-70
2022/05/15 09:03:54;;;;;;;;;;;17.40;99.90;;;;;;5013944;28;19914;-70
2022/05/15 09:06:20;;;;;;;;;;;17.50;99.90;;;;;;5012217;28;19979;-70
2022/05/15 09:08:54;;;;;;;;;;;17.60;99.90;;;;;;5010609;28;19952;-71
2022/05/15 09:11:39;;;;;;;;;;;17.60;99.90;;;;;;5014220;28;19940;-69
2022/05/15 09:14:08;;;;;;;;;;;17.80;99.90;;;;;;5007658;28;20268;-69
2022/05/15 09:16:35;;;;;;;;;;;17.80;99.90;;;;;;5007750;28;19917;-70
2022/05/15 09:19:01;;;;;;;;;;;17.60;99.90;;;;;;5003463;28;19921;-70
2022/05/15 09:21:27;;;;;;;;;;;17.60;99.90;;;;;;5023084;28;20299;-70
2022/05/15 09:23:54;;;;;;;;;;;17.70;99.90;;;;;;5015448;28;19918;-69
2022/05/15 09:26:27;;;;;;;;;;;17.80;99.90;;;;;;5000318;28;19949;-69
2022/05/15 09:28:54;;;;;;;;;;;17.90;99.90;;;;;;5010207;28;20291;-70
2022/05/15 09:31:22;;;;;;;;;;;18.00;99.90;;;;;;5001958;28;19924;-70
2022/05/15 09:33:50;;;;;;;;;;;18.00;99.90;;;;;;5000811;28;19939;-70
2022/05/15 09:36:18;;;;;;;;;;;18.20;99.90;;;;;;5007130;28;19913;-71
2022/05/15 09:38:44;;;;;;;;;;;18.50;99.90;;;;;;4992053;28;19949;-68
2022/05/15 09:43:55;;;;;;;;;;;18.60;99.90;;;;;;5011041;28;19963;-70
2022/05/15 09:46:21;;;;;;;;;;;18.80;99.90;;;;;;4989367;28;20359;-74
2022/05/15 09:49:00;;;;;;;;;;;19.10;99.90;;;;;;5011145;28;19913;-71
2022/05/15 09:51:27;;;;;;;;;;;19.10;99.90;;;;;;5001279;28;20311;-71
2022/05/15 09:53:54;;;;;;;;;;;19.40;99.90;;;;;;5007351;28;19910;-71
2022/05/15 09:56:20;;;;;;;;;;;19.70;99.90;;;;;;5010262;28;19944;-69
2022/05/15 09:58:52;;;;;;;;;;;19.70;99.90;;;;;;5010516;28;19940;-71
2022/05/15 10:01:23;;;;;;;;;;;19.60;99.90;;;;;;5006904;28;19917;-70
2022/05/15 10:03:50;;;;;;;;;;;19.70;99.90;;;;;;5009154;28;19916;-71
2022/05/15 10:06:19;;;;;;;;;;;19.70;99.90;;;;;;5006932;28;19999;-71
2022/05/15 10:08:45;;;;;;;;;;;19.80;99.90;;;;;;5010415;28;20005;-71
2022/05/15 10:11:18;;;;;;;;;;;19.90;99.90;;;;;;5008912;28;19917;-71
2022/05/15 10:13:45;;;;;;;;;;;19.60;99.90;;;;;;5008184;28;20002;-70
2022/05/15 10:16:17;;;;;;;;;;;19.30;99.90;;;;;;5010411;28;19956;-70
2022/05/15 10:19:02;;;;;;;;;;;19.40;99.90;;;;;;4992384;28;19913;-72
2022/05/15 10:21:39;;;;;;;;;;;19.20;99.90;;;;;;5008700;28;19910;-71
2022/05/15 10:24:09;;;;;;;;;;;19.00;99.90;;;;;;5011588;28;19991;-71
2022/05/15 10:26:53;;;;;;;;;;;19.00;99.90;;;;;;5008306;28;19911;-71
2022/05/15 10:29:57;;;;;;;;;;;19.10;99.90;;;;;;5004947;28;20083;-70
2022/05/15 10:32:25;;;;;;;;;;;19.40;99.90;;;;;;4932183;28;20026;-69
2022/05/15 10:34:52;;;;;;;;;;;19.20;99.90;;;;;;4928230;28;20154;-69
2022/05/15 10:37:35;;;;;;;;;;;19.10;99.90;;;;;;4977558;28;19940;-69
2022/05/15 10:40:20;;;;;;;;;;;19.00;99.90;;;;;;5008532;28;19953;-71
2022/05/15 10:42:58;;;;;;;;;;;18.70;99.90;;;;;;5006790;28;19909;-72
2022/05/15 10:45:26;;;;;;;;;;;18.50;99.90;;;;;;5004275;28;20295;-73
2022/05/15 10:48:10;;;;;;;;;;;18.40;99.90;;;;;;5004843;28;19909;-72
2022/05/15 10:50:36;;;;;;;;;;;18.20;99.90;;;;;;5007594;28;19925;-73
2022/05/15 10:58:59;;;;;;;;;;;17.80;99.90;;;;;;5010973;28;20279;-69
2022/05/15 11:01:32;;;;;;;;;;;17.60;99.90;;;;;;4990903;28;19913;-72
2022/05/15 11:03:59;;;;;;;;;;;17.50;99.90;;;;;;4992328;28;19910;-69
2022/05/15 11:06:30;;;;;;;;;;;17.50;99.90;;;;;;5001976;28;19913;-71
2022/05/15 11:09:14;;;;;;;;;;;17.50;99.90;;;;;;5012651;28;19992;-70
2022/05/15 11:12:03;;;;;;;;;;;17.60;99.90;;;;;;5007198;28;20405;-74
2022/05/15 11:14:45;;;;;;;;;;;17.80;99.90;;;;;;4999327;28;19916;-72
2022/05/15 11:17:29;;;;;;;;;;;18.00;99.90;;;;;;5010920;28;19915;-71
2022/05/15 11:19:57;;;;;;;;;;;18.20;99.90;;;;;;5008809;28;19909;-72
2022/05/15 11:22:32;;;;;;;;;;;18.30;99.90;;;;;;5015515;28;19909;-72
2022/05/15 11:25:04;;;;;;;;;;;18.50;99.90;;;;;;5007541;28;19909;-71
2022/05/15 11:27:59;;;;;;;;;;;18.50;99.90;;;;;;5018071;28;20000;-71
2022/05/15 11:30:27;;;;;;;;;;;18.70;99.90;;;;;;4913638;28;20442;-72
2022/05/15 11:32:55;;;;;;;;;;;19.00;99.90;;;;;;5014222;28;19978;-72
2022/05/15 11:35:21;;;;;;;;;;;19.30;99.90;;;;;;4991577;28;19910;-72
2022/05/15 11:37:53;;;;;;;;;;;19.20;99.90;;;;;;5009066;28;20371;-71
2022/05/15 11:40:30;;;;;;;;;;;19.00;99.90;;;;;;5006860;28;19948;-71
2022/05/15 11:42:56;;;;;;;;;;;18.90;99.90;;;;;;5010664;28;19909;-71
2022/05/15 11:45:27;;;;;;;;;;;18.90;99.90;;;;;;5008492;28;19916;-71
2022/05/15 11:48:19;;;;;;;;;;;18.70;99.90;;;;;;4990979;28;20020;-70
2022/05/15 11:50:57;;;;;;;;;;;18.60;99.90;;;;;;4986654;28;19932;-70
2022/05/15 11:53:25;;;;;;;;;;;18.40;99.90;;;;;;5007249;28;19933;-69
2022/05/15 11:55:51;;;;;;;;;;;18.40;99.90;;;;;;4990204;28;19945;-70
2022/05/15 11:58:33;;;;;;;;;;;18.40;99.90;;;;;;5010574;28;19919;-69
2022/05/15 12:01:00;;;;;;;;;;;18.30;99.90;;;;;;5006046;28;20322;-70
2022/05/15 12:03:28;;;;;;;;;;;18.10;99.90;;;;;;4988327;28;19960;-70
2022/05/15 12:06:01;;;;;;;;;;;17.80;99.90;;;;;;4986050;28;20363;-70
2022/05/15 12:08:29;;;;;;;;;;;17.60;99.90;;;;;;5009508;28;20142;-69
2022/05/15 12:10:56;;;;;;;;;;;17.50;99.90;;;;;;4992380;28;19917;-70
2022/05/15 12:13:36;;;;;;;;;;;17.40;99.90;;;;;;4996762;28;19909;-68
2022/05/15 12:16:20;;;;;;;;;;;17.30;99.90;;;;;;5011385;28;20000;-70
2022/05/15 12:18:47;;;;;;;;;;;17.10;99.90;;;;;;5003317;28;19917;-69
2022/05/15 12:21:17;;;;;;;;;;;16.90;99.90;;;;;;5004663;28;20323;-69
2022/05/15 12:24:27;;;;;;;;;;;16.80;99.90;;;;;;4986983;28;19918;-70
2022/05/15 12:26:44;;;;;;;;;;;16.70;99.90;;;;;;5016613;28;19933;-71
2022/05/15 12:29:29;;;;;;;;;;;16.70;99.90;;;;;;5005310;28;20398;-70
2022/05/15 12:31:55;;;;;;;;;;;16.60;99.90;;;;;;4994235;28;19918;-71
2022/05/15 12:34:27;;;;;;;;;;;16.40;99.90;;;;;;5006379;28;19917;-70
2022/05/15 12:36:55;;;;;;;;;;;16.40;99.90;;;;;;5007330;28;19909;-71
2022/05/15 12:39:25;;;;;;;;;;;16.30;99.90;;;;;;4972362;28;20339;-69
2022/05/15 12:41:51;;;;;;;;;;;16.30;99.90;;;;;;4998096;28;20430;-69
2022/05/15 12:44:49;;;;;;;;;;;16.20;99.90;;;;;;5000566;28;20040;-69
2022/05/15 12:47:23;;;;;;;;;;;16.20;99.90;;;;;;4965840;28;19909;-71
2022/05/15 12:49:57;;;;;;;;;;;16.20;99.90;;;;;;5010906;28;19909;-70
2022/05/15 12:52:27;;;;;;;;;;;16.40;99.90;;;;;;4996632;28;20023;-69
2022/05/15 12:54:59;;;;;;;;;;;16.70;99.90;;;;;;5006897;28;19917;-70
2022/05/15 12:57:25;;;;;;;;;;;16.80;99.90;;;;;;5005990;28;19909;-72
2022/05/15 12:59:51;;;;;;;;;;;16.80;99.90;;;;;;5013145;28;20379;-70
2022/05/15 13:02:19;;;;;;;;;;;17.00;99.90;;;;;;5010869;28;19924;-69
2022/05/15 13:04:49;;;;;;;;;;;17.10;99.90;;;;;;5012860;28;19932;-71
2022/05/15 13:07:15;;;;;;;;;;;17.30;99.90;;;;;;5015633;28;20007;-70
2022/05/15 13:09:40;;;;;;;;;;;17.40;99.90;;;;;;5020022;28;19909;-71
2022/05/15 13:12:10;;;;;;;;;;;17.40;99.90;;;;;;5015064;28;19918;-69
2022/05/15 13:14:38;;;;;;;;;;;17.30;99.90;;;;;;5013855;28;19909;-70
2022/05/15 13:17:04;;;;;;;;;;;17.30;99.90;;;;;;5015318;28;19914;-68
2022/05/15 13:19:36;;;;;;;;;;;17.30;99.90;;;;;;5018519;28;19910;-70
2022/05/15 13:22:03;;;;;;;;;;;17.30;99.90;;;;;;5015051;28;19996;-69
2022/05/15 13:24:30;;;;;;;;;;;17.10;99.90;;;;;;5012911;28;20318;-69
2022/05/15 13:26:58;;;;;;;;;;;17.20;99.90;;;;;;5003207;28;19910;-70
2022/05/15 13:29:27;;;;;;;;;;;17.30;99.90;;;;;;5012476;28;19909;-70
2022/05/15 13:31:54;;;;;;;;;;;17.40;99.90;;;;;;5015381;28;19917;-70
2022/05/15 13:34:24;;;;;;;;;;;17.50;99.90;;;;;;4994786;28;19971;-70
2022/05/15 13:36:59;;;;;;;;;;;17.40;99.90;;;;;;5009369;28;19924;-69
2022/05/15 13:45:05;;;;;;;;;;;17.30;99.90;;;;;;5011481;28;19935;-69
2022/05/15 13:47:30;;;;;;;;;;;17.40;99.90;;;;;;5009217;28;19909;-71
2022/05/15 13:49:56;;;;;;;;;;;17.30;99.90;;;;;;5008084;28;19909;-71
2022/05/15 13:52:21;;;;;;;;;;;17.40;99.90;;;;;;5011054;28;19983;-72
2022/05/15 13:54:47;;;;;;;;;;;17.40;99.90;;;;;;4994516;28;19968;-71
2022/05/15 13:57:13;;;;;;;;;;;17.50;99.90;;;;;;5009757;28;19910;-70
2022/05/15 13:59:41;;;;;;;;;;;17.60;99.90;;;;;;4990995;28;19909;-71
2022/05/15 14:02:14;;;;;;;;;;;17.60;99.90;;;;;;5007898;28;19909;-70
2022/05/15 14:04:41;;;;;;;;;;;17.50;99.90;;;;;;4992761;28;19932;-71
2022/05/15 14:07:07;;;;;;;;;;;17.60;99.90;;;;;;5011658;28;19909;-72
2022/05/15 14:09:43;;;;;;;;;;;17.80;99.90;;;;;;4988827;28;20413;-72
2022/05/15 14:12:09;;;;;;;;;;;17.90;99.90;;;;;;4992454;28;20052;-70
2022/05/15 14:14:54;;;;;;;;;;;17.90;99.90;;;;;;5005704;28;19909;-71
2022/05/15 14:17:25;;;;;;;;;;;17.90;99.90;;;;;;5007352;28;20366;-70
2022/05/15 14:19:59;;;;;;;;;;;17.70;99.90;;;;;;5009227;28;19994;-71
2022/05/15 14:22:26;;;;;;;;;;;17.60;99.90;;;;;;5009479;28;19921;-71
2022/05/15 14:24:52;;;;;;;;;;;17.60;99.90;;;;;;5009060;28;19920;-70
2022/05/15 14:27:18;;;;;;;;;;;17.50;99.90;;;;;;5005048;28;20004;-69
2022/05/15 14:29:44;;;;;;;;;;;17.40;99.90;;;;;;5011766;28;20075;-71
2022/05/15 14:32:11;;;;;;;;;;;17.20;99.90;;;;;;5010744;28;19921;-71
2022/05/15 14:34:37;;;;;;;;;;;17.20;99.90;;;;;;5006787;28;19933;-70
2022/05/15 14:37:03;;;;;;;;;;;17.30;99.90;;;;;;5006183;28;20371;-71
2022/05/15 14:39:28;;;;;;;;;;;17.30;99.90;;;;;;5009477;28;19910;-70
2022/05/15 14:41:56;;;;;;;;;;;17.30;99.90;;;;;;5009288;28;19909;-69
2022/05/15 14:44:21;;;;;;;;;;;17.10;99.90;;;;;;5008817;28;19931;-70
2022/05/15 14:46:48;;;;;;;;;;;17.10;99.90;;;;;;4983023;28;20300;-70
2022/05/15 14:49:14;;;;;;;;;;;17.00;99.90;;;;;;5007738;28;19971;-72
2022/05/15 14:51:41;;;;;;;;;;;16.90;99.90;;;;;;4999302;28;19924;-70